Weather at Conn Field

Public forecast

Using degrees Celsius for public forecast. Weather courtesy of forecast.io.

Closest aviation weather report (METAR) to Conn Field

Closest report is CFB Borden, 28.6 nm (52.9 km) ENE. Retrieved 2020/09/29 17:00 UTC (17 minutes ago):

CYBN 291700Z AUTO 25008KT 9SM SCT036 SCT055 18/09 A2979 RMK SLP089

Closest aviation forecast (TAF) to Conn Field

Closest forecast is CFB Borden, 28.6 nm (52.9 km) ENE. Retrieved 2020/09/29 12:33 UTC (5 hours ago):

TAF TAF CYBN 291130Z 2912/2924 21005KT P6SM SCT020 TEMPO 2912/2916 BKN020 BECMG 2914/2916 25008KT FM291600 25008G18KT P6SM SCT040 BECMG 2919/2921 SCT040 BKN200 RMK FCST BASED ON AUTO OBS NXT FCST BY 291800Z